createdAt,value
2017-07-16T00:00:12.544Z,78.01
2017-07-16T00:02:38.370Z,78.64
2017-07-16T00:05:04.204Z,77.23
2017-07-16T00:07:30.074Z,77.55
2017-07-16T00:09:55.995Z,78.68
2017-07-16T00:12:21.905Z,78.72
2017-07-16T00:14:47.790Z,78.84
2017-07-16T00:17:13.682Z,78.66
2017-07-16T00:19:39.504Z,78.77
2017-07-16T00:22:05.313Z,79.05
2017-07-16T00:24:31.159Z,79.25
2017-07-16T00:26:57.009Z,78.75
2017-07-16T00:29:22.902Z,78.78
2017-07-16T00:31:48.738Z,79.03
2017-07-16T00:34:15.698Z,79.07
2017-07-16T00:36:41.608Z,78.93
2017-07-16T00:39:08.342Z,79.44
2017-07-16T00:41:34.252Z,79.52
2017-07-16T00:44:00.098Z,79.27
2017-07-16T00:46:26.015Z,79.00
2017-07-16T00:48:51.898Z,79.41
2017-07-16T00:51:17.952Z,79.69
2017-07-16T00:53:43.775Z,80.17
2017-07-16T00:56:09.603Z,79.66
2017-07-16T00:58:35.502Z,80.02
2017-07-16T01:01:01.408Z,80.32
2017-07-16T01:03:27.269Z,80.52
2017-07-16T01:05:53.135Z,80.37
2017-07-16T01:08:18.942Z,80.15
2017-07-16T01:10:44.749Z,80.21
2017-07-16T01:13:10.610Z,80.41
2017-07-16T01:15:36.521Z,80.47
2017-07-16T01:18:02.357Z,80.65
2017-07-16T01:20:28.255Z,80.49
2017-07-16T01:22:54.115Z,80.56
2017-07-16T01:25:20.002Z,80.61
2017-07-16T01:27:52.670Z,81.16
2017-07-16T01:30:18.530Z,81.62
2017-07-16T01:32:44.480Z,81.37
2017-07-16T01:35:10.324Z,82.17
2017-07-16T01:37:36.138Z,82.57
2017-07-16T01:40:02.005Z,82.45
2017-07-16T01:42:27.995Z,81.70
2017-07-16T01:44:53.825Z,81.19
2017-07-16T01:47:19.682Z,81.45
2017-07-16T01:49:45.568Z,81.44
2017-07-16T01:52:11.381Z,81.38
2017-07-16T01:54:37.248Z,80.73
2017-07-16T01:57:03.082Z,80.97
2017-07-16T01:59:28.945Z,80.54
2017-07-16T02:01:54.911Z,80.16
2017-07-16T02:04:20.762Z,81.68
2017-07-16T02:06:46.594Z,81.64
2017-07-16T02:09:12.531Z,81.28
2017-07-16T02:11:38.401Z,81.06
2017-07-16T02:14:04.222Z,80.65
2017-07-16T02:16:30.081Z,80.70
2017-07-16T02:18:56.014Z,81.29
2017-07-16T02:21:22.094Z,81.31
2017-07-16T02:23:47.901Z,81.24
2017-07-16T02:26:13.777Z,81.70
2017-07-16T02:28:39.667Z,81.86
2017-07-16T02:31:05.498Z,81.94
2017-07-16T02:33:31.431Z,82.33
2017-07-16T02:35:57.337Z,81.96
2017-07-16T02:38:23.159Z,81.76
2017-07-16T02:40:49.012Z,81.37
2017-07-16T02:43:14.882Z,81.69
2017-07-16T02:45:40.723Z,81.51
2017-07-16T02:48:06.700Z,81.59
2017-07-16T02:50:32.532Z,81.45
2017-07-16T02:52:58.345Z,81.63
2017-07-16T02:55:24.215Z,81.56
2017-07-16T02:57:50.159Z,81.71
2017-07-16T03:00:16.008Z,81.53
2017-07-16T03:02:41.830Z,81.55
2017-07-16T03:05:07.709Z,81.69
2017-07-16T03:07:33.698Z,81.68
2017-07-16T03:09:59.660Z,81.97
2017-07-16T03:12:25.507Z,82.03
2017-07-16T03:14:51.380Z,81.88
2017-07-16T03:17:17.282Z,81.88
2017-07-16T03:19:43.133Z,81.63
2017-07-16T03:22:09.042Z,81.06
2017-07-16T03:24:34.937Z,81.55
2017-07-16T03:27:00.764Z,81.57
2017-07-16T03:29:26.598Z,82.38
2017-07-16T03:31:52.413Z,81.88
2017-07-16T03:34:18.298Z,81.48
2017-07-16T03:36:44.274Z,81.26
2017-07-16T03:39:10.069Z,81.88
2017-07-16T03:41:35.869Z,81.84
2017-07-16T03:44:01.721Z,81.56
2017-07-16T03:46:27.533Z,81.63
2017-07-16T03:48:54.134Z,82.34
2017-07-16T03:51:20.004Z,82.31
2017-07-16T03:53:45.791Z,81.68
2017-07-16T03:56:11.587Z,81.89
2017-07-16T03:58:37.542Z,81.55
2017-07-16T04:01:03.430Z,81.90
2017-07-16T04:03:29.377Z,82.24
2017-07-16T04:05:55.270Z,82.07
2017-07-16T04:08:21.105Z,81.28
2017-07-16T04:10:46.969Z,81.77
2017-07-16T04:13:12.747Z,81.58
2017-07-16T04:15:38.562Z,81.49
2017-07-16T04:18:04.401Z,81.31
2017-07-16T04:20:30.210Z,81.67
2017-07-16T04:22:56.093Z,81.90
2017-07-16T04:25:21.913Z,81.49
2017-07-16T04:27:47.708Z,82.02
2017-07-16T04:30:13.590Z,82.21
2017-07-16T04:32:39.490Z,82.10
2017-07-16T04:35:05.308Z,81.78
2017-07-16T04:37:31.290Z,82.71
2017-07-16T04:39:57.182Z,81.80
2017-07-16T04:42:23.049Z,79.69
2017-07-16T04:44:48.842Z,79.35
2017-07-16T04:47:14.634Z,78.89
2017-07-16T04:49:40.462Z,79.74
2017-07-16T04:52:06.279Z,79.44
2017-07-16T04:54:32.135Z,79.70
2017-07-16T04:56:57.975Z,80.14
2017-07-16T04:59:24.015Z,78.56
2017-07-16T05:01:49.935Z,78.01
2017-07-16T05:04:15.861Z,78.00
2017-07-16T05:06:42.369Z,78.34
2017-07-16T05:09:08.282Z,77.75
2017-07-16T05:11:34.105Z,78.33
2017-07-16T05:14:00.977Z,78.38
2017-07-16T05:16:27.497Z,77.58
2017-07-16T05:18:53.354Z,77.57
2017-07-16T05:21:19.184Z,77.03
2017-07-16T05:23:45.067Z,76.41
2017-07-16T05:26:10.857Z,76.56
2017-07-16T05:28:36.724Z,75.68
2017-07-16T05:31:02.731Z,75.60
2017-07-16T05:33:28.755Z,74.60
2017-07-16T05:35:54.821Z,74.79
2017-07-16T05:38:20.689Z,73.74
2017-07-16T05:40:46.531Z,72.06
2017-07-16T05:43:12.438Z,71.28
2017-07-16T05:45:38.355Z,71.54
2017-07-16T05:48:04.198Z,71.62
2017-07-16T05:50:30.058Z,71.05
2017-07-16T05:52:55.903Z,68.54
2017-07-16T05:55:21.694Z,69.53
2017-07-16T05:57:47.573Z,67.95
2017-07-16T06:00:14.358Z,67.58
2017-07-16T06:02:40.200Z,65.33
2017-07-16T06:05:06.271Z,63.89
2017-07-16T06:07:32.247Z,63.20
2017-07-16T06:09:58.254Z,63.56
2017-07-16T06:12:24.345Z,62.43
2017-07-16T06:14:50.318Z,61.81
2017-07-16T06:17:16.132Z,60.55
2017-07-16T06:19:42.165Z,57.54
2017-07-16T06:22:08.177Z,58.08
2017-07-16T06:24:34.039Z,55.88
2017-07-16T06:26:59.943Z,55.42
2017-07-16T06:29:25.834Z,56.92
2017-07-16T06:31:51.674Z,55.95
2017-07-16T06:34:17.600Z,55.48
2017-07-16T06:36:43.441Z,54.83
2017-07-16T06:39:24.259Z,53.76
2017-07-16T06:41:50.137Z,53.43
2017-07-16T06:44:16.018Z,51.89
2017-07-16T06:46:41.890Z,52.65
2017-07-16T06:49:07.821Z,50.94
2017-07-16T06:51:33.862Z,50.97
2017-07-16T06:53:59.734Z,51.84
2017-07-16T06:56:25.545Z,52.16
2017-07-16T06:58:51.431Z,50.05
2017-07-16T07:01:17.274Z,49.96
2017-07-16T07:03:43.187Z,51.16
2017-07-16T07:06:09.033Z,50.54
2017-07-16T07:08:34.849Z,51.59
2017-07-16T07:11:00.658Z,51.01
2017-07-16T07:13:26.502Z,50.05
2017-07-16T07:15:52.307Z,50.81
2017-07-16T07:18:18.183Z,49.43
2017-07-16T07:20:44.126Z,49.10
2017-07-16T07:23:10.770Z,49.56
2017-07-16T07:25:36.606Z,49.59
2017-07-16T07:28:02.445Z,47.82
2017-07-16T07:30:28.337Z,48.26
2017-07-16T07:32:54.214Z,48.10
2017-07-16T07:35:20.033Z,47.58
2017-07-16T07:37:45.898Z,48.25
2017-07-16T07:40:11.729Z,47.95
2017-07-16T07:42:37.533Z,48.81
2017-07-16T07:45:03.409Z,46.62
2017-07-16T07:47:29.246Z,47.24
2017-07-16T07:49:55.246Z,46.01
2017-07-16T07:52:21.081Z,45.14
2017-07-16T07:54:47.117Z,42.85
2017-07-16T07:57:13.052Z,42.62
2017-07-16T07:59:38.958Z,43.05
2017-07-16T08:02:05.037Z,44.18
2017-07-16T08:04:30.912Z,42.99
2017-07-16T08:06:57.042Z,43.38
2017-07-16T08:09:22.942Z,43.56
2017-07-16T08:11:48.784Z,42.86
2017-07-16T08:14:14.634Z,42.65
2017-07-16T08:16:40.498Z,43.49
2017-07-16T08:19:06.572Z,42.79
2017-07-16T08:21:32.471Z,43.77
2017-07-16T08:23:58.369Z,42.24
2017-07-16T08:26:24.240Z,40.18
2017-07-16T08:28:50.131Z,41.29
2017-07-16T08:31:15.959Z,40.04
2017-07-16T08:33:41.866Z,41.69
2017-07-16T08:36:07.776Z,40.53
2017-07-16T08:38:33.716Z,41.37
2017-07-16T08:40:59.762Z,40.63
2017-07-16T08:43:25.795Z,39.40
2017-07-16T08:45:51.674Z,39.71
2017-07-16T08:48:17.659Z,39.77
2017-07-16T08:50:43.532Z,39.71
2017-07-16T08:53:09.410Z,39.31
2017-07-16T08:55:35.274Z,39.29
2017-07-16T08:58:01.170Z,40.03
2017-07-16T09:00:27.094Z,39.51
2017-07-16T09:02:53.034Z,39.23
2017-07-16T09:05:18.856Z,38.38
2017-07-16T09:07:44.684Z,35.82
2017-07-16T09:10:10.586Z,35.43
2017-07-16T09:12:36.516Z,33.05
2017-07-16T09:15:02.408Z,33.12
2017-07-16T09:17:28.314Z,32.60
2017-07-16T09:19:54.173Z,35.25
2017-07-16T09:22:20.042Z,36.34
2017-07-16T09:24:45.984Z,36.54
2017-07-16T09:27:11.867Z,36.87
2017-07-16T09:29:37.708Z,36.97
2017-07-16T09:32:03.705Z,36.22
2017-07-16T09:34:29.549Z,34.85
2017-07-16T09:36:55.419Z,34.75
2017-07-16T09:39:21.446Z,32.77
2017-07-16T09:41:47.472Z,31.31
2017-07-16T09:44:13.423Z,32.48
2017-07-16T09:46:39.468Z,32.83
2017-07-16T09:49:05.517Z,33.64
2017-07-16T09:51:31.513Z,32.52
2017-07-16T09:53:57.344Z,34.42
2017-07-16T09:56:23.401Z,34.44
2017-07-16T09:58:49.386Z,33.23
2017-07-16T10:01:15.946Z,33.77
2017-07-16T10:03:41.908Z,34.35
2017-07-16T10:06:07.852Z,33.88
2017-07-16T10:08:33.674Z,33.58
2017-07-16T10:10:59.727Z,32.96
2017-07-16T10:13:25.790Z,32.76
2017-07-16T10:15:51.692Z,33.15
2017-07-16T10:18:18.967Z,30.95
2017-07-16T10:20:45.066Z,31.45
2017-07-16T10:23:11.084Z,31.50
2017-07-16T10:25:36.964Z,31.78
2017-07-16T10:28:02.858Z,31.42
2017-07-16T10:30:28.738Z,30.52
2017-07-16T10:32:54.574Z,31.46
2017-07-16T10:35:20.647Z,32.19
2017-07-16T10:37:46.507Z,29.58
2017-07-16T10:40:12.408Z,30.19
2017-07-16T10:42:38.347Z,28.81
2017-07-16T10:45:04.176Z,29.84
2017-07-16T10:47:30.132Z,29.74
2017-07-16T10:49:55.992Z,30.83
2017-07-16T10:52:21.874Z,29.43
2017-07-16T11:38:26.276Z,32.16
2017-07-16T11:40:52.138Z,31.14
2017-07-16T11:43:18.058Z,29.43
2017-07-16T11:45:43.977Z,30.88
2017-07-16T11:48:09.953Z,31.37
2017-07-16T11:50:35.799Z,30.46
2017-07-16T11:53:01.652Z,29.58
2017-07-16T11:55:27.628Z,31.40
2017-07-16T11:57:53.485Z,30.84
2017-07-16T12:00:19.417Z,32.19
2017-07-16T12:02:45.365Z,31.96
2017-07-16T12:05:11.357Z,31.87
2017-07-16T12:07:37.249Z,31.91
2017-07-16T12:10:03.163Z,33.38
2017-07-16T12:12:29.015Z,32.20
2017-07-16T12:14:54.948Z,33.34
2017-07-16T12:17:20.808Z,32.81
2017-07-16T12:19:46.670Z,32.76
2017-07-16T12:22:12.650Z,32.70
2017-07-16T12:24:38.533Z,33.56
2017-07-16T12:27:04.404Z,33.95
2017-07-16T12:29:30.272Z,32.95
2017-07-16T12:31:56.151Z,34.18
2017-07-16T12:34:22.108Z,34.11
2017-07-16T12:36:48.017Z,34.61
2017-07-16T12:39:13.975Z,34.26
2017-07-16T12:41:39.828Z,34.03
2017-07-16T12:44:05.662Z,35.00
2017-07-16T12:46:31.788Z,34.48
2017-07-16T12:48:57.635Z,34.15
2017-07-16T12:51:23.469Z,35.75
2017-07-16T12:53:49.333Z,35.71
2017-07-16T12:56:15.362Z,35.56
2017-07-16T12:58:41.394Z,33.31
2017-07-16T13:01:07.367Z,31.80
2017-07-16T13:03:33.524Z,31.09
2017-07-16T13:05:59.456Z,32.32
2017-07-16T13:08:25.405Z,32.57
2017-07-16T13:10:51.349Z,34.91
2017-07-16T13:13:17.294Z,34.04
2017-07-16T13:15:43.400Z,34.64
2017-07-16T13:18:09.353Z,35.30
2017-07-16T13:20:35.397Z,35.77
2017-07-16T13:23:01.385Z,35.25
2017-07-16T13:25:27.231Z,35.48
2017-07-16T13:27:53.081Z,35.97
2017-07-16T13:30:19.050Z,34.81
2017-07-16T13:32:45.173Z,35.60
2017-07-16T13:35:11.057Z,33.74
2017-07-16T13:37:36.944Z,34.26
2017-07-16T13:40:03.015Z,34.78
2017-07-16T13:42:28.913Z,34.84
2017-07-16T13:44:54.736Z,34.13
2017-07-16T13:47:20.628Z,33.58
2017-07-16T13:49:46.670Z,31.44
2017-07-16T13:52:12.518Z,31.97
2017-07-16T13:54:38.442Z,32.66
2017-07-16T13:57:04.305Z,32.70
2017-07-16T13:59:30.784Z,31.78
2017-07-16T14:01:56.627Z,32.34
2017-07-16T14:04:22.524Z,32.40
2017-07-16T14:06:48.412Z,30.98
2017-07-16T14:09:14.255Z,30.37
2017-07-16T14:11:40.132Z,30.74
2017-07-16T14:14:06.109Z,31.69
2017-07-16T14:16:32.716Z,30.74
2017-07-16T14:18:58.597Z,30.69
2017-07-16T14:21:24.429Z,30.73
2017-07-16T14:23:50.302Z,31.23
2017-07-16T14:26:16.189Z,28.82
2017-07-16T14:28:42.133Z,29.99
2017-07-16T14:31:08.163Z,29.93
2017-07-16T14:33:34.203Z,30.31
2017-07-16T14:36:00.117Z,29.38
2017-07-16T14:38:26.020Z,30.18
2017-07-16T14:40:52.009Z,31.47
2017-07-16T14:43:17.887Z,31.48
2017-07-16T14:45:43.892Z,30.85
2017-07-16T14:48:09.824Z,32.15
2017-07-16T14:50:35.778Z,31.34
2017-07-16T14:53:01.684Z,32.93
2017-07-16T14:55:27.521Z,32.64
2017-07-16T14:57:53.451Z,32.66
2017-07-16T15:00:19.309Z,34.19
2017-07-16T15:02:45.201Z,34.12
2017-07-16T15:05:11.456Z,33.19
2017-07-16T15:07:37.364Z,33.44
2017-07-16T15:10:03.204Z,33.51
2017-07-16T15:12:29.040Z,33.01
2017-07-16T15:14:54.900Z,33.74
2017-07-16T15:17:20.748Z,33.75
2017-07-16T15:19:46.767Z,33.56
2017-07-16T15:22:12.723Z,35.06
2017-07-16T15:24:38.578Z,36.49
2017-07-16T15:27:04.445Z,35.02
2017-07-16T15:29:30.389Z,35.67
2017-07-16T15:31:56.260Z,35.04
2017-07-16T15:34:22.194Z,36.33
2017-07-16T15:36:48.104Z,36.89
2017-07-16T15:39:14.058Z,36.92
2017-07-16T15:41:39.953Z,36.77
2017-07-16T15:44:06.020Z,36.69
2017-07-16T15:46:31.997Z,36.48
2017-07-16T15:48:57.925Z,37.77
2017-07-16T15:51:24.813Z,37.65
2017-07-16T15:53:50.870Z,38.47
2017-07-16T15:56:16.813Z,38.52
2017-07-16T15:58:42.781Z,39.13
2017-07-16T16:01:08.641Z,39.53
2017-07-16T16:03:34.576Z,40.82
2017-07-16T16:06:00.445Z,40.63
2017-07-16T16:08:26.375Z,41.60
2017-07-16T16:10:52.372Z,41.74
2017-07-16T16:13:18.247Z,41.08
2017-07-16T16:15:44.184Z,40.78
2017-07-16T16:18:10.217Z,41.44
2017-07-16T16:20:36.151Z,41.23
2017-07-16T16:23:02.004Z,40.45
2017-07-16T16:25:27.857Z,41.57
2017-07-16T16:27:53.828Z,41.46
2017-07-16T16:30:19.664Z,42.13
2017-07-16T16:32:45.552Z,41.80
2017-07-16T16:35:11.583Z,41.28
2017-07-16T16:37:37.455Z,42.40
2017-07-16T16:40:03.278Z,42.07
2017-07-16T16:42:29.190Z,41.87
2017-07-16T16:44:55.205Z,41.99
2017-07-16T16:47:21.232Z,41.58
2017-07-16T16:49:47.288Z,42.65
2017-07-16T16:52:13.233Z,42.96
2017-07-16T16:54:39.059Z,40.66
2017-07-16T16:57:04.904Z,41.31
2017-07-16T16:59:30.907Z,41.50
2017-07-16T17:01:56.760Z,41.99
2017-07-16T17:04:22.732Z,42.27
2017-07-16T17:06:48.587Z,42.99
2017-07-16T17:09:14.612Z,42.72
2017-07-16T17:11:40.477Z,41.40
2017-07-16T17:14:06.471Z,42.60
2017-07-16T17:16:32.493Z,43.04
2017-07-16T17:18:58.561Z,42.26
2017-07-16T17:21:24.523Z,43.39
2017-07-16T17:23:50.559Z,43.00
2017-07-16T17:26:16.609Z,42.96
2017-07-16T17:28:42.610Z,43.25
2017-07-16T17:31:08.592Z,42.59
2017-07-16T17:33:34.472Z,42.76
2017-07-16T17:36:00.371Z,42.57
2017-07-16T17:38:26.258Z,43.04
2017-07-16T17:40:52.301Z,43.89
2017-07-16T17:43:25.077Z,44.24
2017-07-16T17:45:51.145Z,44.58
2017-07-16T17:48:17.048Z,44.52
2017-07-16T17:50:42.895Z,44.54
2017-07-16T17:53:08.764Z,44.21
2017-07-16T17:55:34.624Z,45.16
2017-07-16T17:58:00.575Z,45.25
2017-07-16T18:00:26.644Z,45.09
2017-07-16T18:02:52.482Z,46.06
2017-07-16T18:05:18.309Z,45.55
2017-07-16T18:07:44.167Z,46.79
2017-07-16T18:10:10.051Z,47.61
2017-07-16T18:12:35.957Z,47.36
2017-07-16T18:15:01.827Z,47.07
2017-07-16T18:17:27.925Z,47.62
2017-07-16T18:19:53.816Z,47.76
2017-07-16T18:22:19.735Z,48.53
2017-07-16T18:24:45.753Z,48.44
2017-07-16T18:27:11.784Z,48.59
2017-07-16T18:29:37.822Z,49.18
2017-07-16T18:32:03.763Z,49.85
2017-07-16T18:34:29.630Z,49.24
2017-07-16T18:36:55.457Z,50.58
2017-07-16T18:39:21.369Z,51.65
2017-07-16T18:41:47.235Z,52.88
2017-07-16T18:44:13.124Z,53.15
2017-07-16T18:46:38.992Z,53.57
2017-07-16T18:49:04.980Z,54.79
2017-07-16T18:51:30.902Z,53.91
2017-07-16T18:53:57.826Z,53.91
2017-07-16T18:56:23.843Z,54.22
2017-07-16T18:58:49.908Z,54.82
2017-07-16T19:01:15.827Z,54.99
2017-07-16T19:03:41.736Z,55.97
2017-07-16T19:06:07.661Z,56.27
2017-07-16T19:08:33.618Z,57.31
2017-07-16T19:10:59.543Z,57.94
2017-07-16T19:13:25.396Z,57.71
2017-07-16T19:15:51.246Z,58.54
2017-07-16T19:18:17.210Z,58.96
2017-07-16T19:20:43.814Z,58.76
2017-07-16T19:23:09.688Z,58.77
2017-07-16T19:25:35.744Z,58.79
2017-07-16T19:28:01.717Z,59.90
2017-07-16T19:30:27.543Z,60.10
2017-07-16T19:32:53.527Z,60.78
2017-07-16T19:35:19.489Z,60.94
2017-07-16T19:37:45.349Z,61.16
2017-07-16T19:40:11.186Z,60.62
2017-07-16T19:42:37.131Z,61.72
2017-07-16T19:45:03.060Z,62.54
2017-07-16T19:47:28.894Z,61.89
2017-07-16T19:49:54.988Z,62.32
2017-07-16T19:52:21.008Z,62.29
2017-07-16T19:54:46.886Z,62.21
2017-07-16T19:57:12.856Z,63.41
2017-07-16T19:59:38.761Z,63.22
2017-07-16T20:02:04.684Z,63.56
2017-07-16T20:04:30.706Z,63.29
2017-07-16T20:06:56.627Z,63.49
2017-07-16T20:09:22.607Z,63.11
2017-07-16T20:11:48.456Z,64.80
2017-07-16T20:14:16.506Z,64.81
2017-07-16T20:16:42.448Z,63.98
2017-07-16T20:19:08.369Z,64.38
2017-07-16T20:21:34.317Z,65.64
2017-07-16T20:24:00.192Z,66.18
2017-07-16T20:26:26.112Z,66.44
2017-07-16T20:28:52.075Z,66.20
2017-07-16T20:31:17.949Z,66.06
2017-07-16T20:33:43.890Z,66.27
2017-07-16T20:36:09.753Z,66.59
2017-07-16T20:38:35.637Z,67.42
2017-07-16T20:41:01.549Z,67.54
2017-07-16T20:43:27.384Z,67.58
2017-07-16T20:45:53.301Z,66.43
2017-07-16T20:48:19.249Z,67.66
2017-07-16T20:50:45.092Z,68.54
2017-07-16T20:53:10.924Z,68.72
2017-07-16T20:55:36.981Z,68.58
2017-07-16T20:58:02.940Z,67.57
2017-07-16T21:00:28.836Z,68.29
2017-07-16T21:02:54.741Z,69.29
2017-07-16T21:05:20.635Z,69.99
2017-07-16T21:07:47.461Z,70.39
2017-07-16T21:10:13.301Z,70.24
2017-07-16T21:12:39.225Z,70.15
2017-07-16T21:15:05.893Z,70.20
2017-07-16T21:17:31.749Z,69.58
2017-07-16T21:19:58.132Z,70.24
2017-07-16T21:22:23.963Z,70.94
2017-07-16T21:24:49.795Z,71.30
2017-07-16T21:27:15.762Z,71.26
2017-07-16T21:29:41.624Z,71.31
2017-07-16T21:32:07.472Z,72.19
2017-07-16T21:34:33.497Z,71.54
2017-07-16T21:36:59.318Z,71.36
2017-07-16T21:39:25.166Z,72.00
2017-07-16T21:41:51.164Z,72.42
2017-07-16T21:44:17.017Z,72.02
2017-07-16T21:46:43.072Z,72.69
2017-07-16T21:49:08.971Z,72.79
2017-07-16T21:51:34.844Z,72.32
2017-07-16T21:54:00.717Z,72.51
2017-07-16T21:56:26.653Z,73.38
2017-07-16T21:58:52.541Z,73.20
2017-07-16T22:01:18.589Z,72.85
2017-07-16T22:03:44.492Z,73.62
2017-07-16T22:06:10.385Z,73.09
2017-07-16T22:08:36.240Z,73.60
2017-07-16T22:11:02.199Z,73.09
2017-07-16T22:13:28.096Z,73.84
2017-07-16T22:15:53.992Z,74.32
2017-07-16T22:18:20.706Z,74.47
2017-07-16T22:20:46.543Z,73.69
2017-07-16T22:23:12.507Z,74.17
2017-07-16T22:25:38.388Z,74.45
2017-07-16T22:28:04.737Z,74.74
2017-07-16T22:30:30.594Z,75.37
2017-07-16T22:32:56.501Z,74.88
2017-07-16T22:35:22.399Z,75.06
2017-07-16T22:37:48.313Z,75.90
2017-07-16T22:40:14.255Z,75.71
2017-07-16T22:42:40.102Z,75.84
2017-07-16T22:45:06.188Z,75.86
2017-07-16T22:47:32.152Z,75.96
2017-07-16T22:49:58.036Z,76.06
2017-07-16T22:52:23.984Z,75.98
2017-07-16T22:54:49.831Z,75.89
2017-07-16T22:57:15.692Z,76.07
2017-07-16T22:59:41.652Z,76.23
2017-07-16T23:02:07.508Z,76.74
2017-07-16T23:04:33.527Z,76.32
2017-07-16T23:06:59.496Z,76.04
2017-07-16T23:09:25.891Z,76.26
2017-07-16T23:11:52.609Z,76.85
2017-07-16T23:14:18.672Z,76.71
2017-07-16T23:16:51.717Z,76.93
2017-07-16T23:19:17.663Z,77.24
2017-07-16T23:21:43.620Z,77.56
2017-07-16T23:24:09.563Z,77.35
2017-07-16T23:26:35.951Z,77.00
2017-07-16T23:29:01.816Z,76.74
2017-07-16T23:31:27.684Z,77.19
2017-07-16T23:33:53.612Z,76.55
2017-07-16T23:36:19.448Z,77.54
2017-07-16T23:38:45.343Z,77.38
2017-07-16T23:41:11.372Z,77.72
2017-07-16T23:43:37.316Z,77.80
2017-07-16T23:46:03.219Z,77.32
2017-07-16T23:48:29.192Z,76.76
2017-07-16T23:50:55.028Z,75.20
2017-07-16T23:53:20.941Z,77.55
2017-07-16T23:55:46.921Z,78.01
2017-07-16T23:58:13.753Z,77.23
